sim
Sign-in with your pilot id or email,
or register
Callsign
Passwort

Schedule Details

Flight Number: DLH1945 (2)
Departure: Genoa Cristoforo Colombo Airport (LIMJ) at 15:45
Arrival: Munich Airport (EDDM) at 17:00
Route: Lufthansa Passenger Schedule. Enter filed route here before submitting Pirep.

Weather Information
Getting current METAR information for LIMJ 231250Z 12010KT 9999 FEW025 SCT030 22/18 Q1009
Getting current METAR information for EDDM 231250Z 25005KT 230V290 6000 SHRA SCT015 SCT020CB BKN043 18/15 Q1010 TEMPO 4000

Schedule Frequency

Route Map